createdAt,value
2022-12-29T00:02:20.828Z,-1.13
2022-12-29T00:07:28.908Z,-1.13
2022-12-29T00:12:50.063Z,-1.09
2022-12-29T00:17:57.401Z,-1.02
2022-12-29T00:23:20.562Z,-0.99
2022-12-29T00:28:46.690Z,-0.93
2022-12-29T00:34:11.613Z,-0.92
2022-12-29T00:39:38.794Z,-0.93
2022-12-29T00:44:46.857Z,-0.92
2022-12-29T00:49:54.083Z,-0.93
2022-12-29T00:54:59.855Z,-0.89
2022-12-29T01:00:08.833Z,-0.82
2022-12-29T01:05:16.702Z,-0.77
2022-12-29T01:10:25.811Z,-0.74
2022-12-29T01:15:33.135Z,-0.77
2022-12-29T01:20:41.151Z,-0.72
2022-12-29T01:25:46.815Z,-0.61
2022-12-29T01:30:54.546Z,-0.48
2022-12-29T01:36:05.752Z,-0.38
2022-12-29T01:41:15.590Z,-0.27
2022-12-29T01:46:29.008Z,-0.22
2022-12-29T01:51:40.020Z,-0.24
2022-12-29T01:56:48.353Z,-0.26
2022-12-29T02:01:56.714Z,-0.25
2022-12-29T02:07:08.041Z,-0.26
2022-12-29T02:12:15.693Z,-0.25
2022-12-29T02:17:38.354Z,-0.26
2022-12-29T02:23:00.538Z,-0.19
2022-12-29T02:28:34.452Z,-0.15
2022-12-29T02:33:57.438Z,-0.16
2022-12-29T02:39:13.800Z,-0.13
2022-12-29T02:44:31.612Z,-0.07
2022-12-29T02:49:49.638Z,-0.01
2022-12-29T02:55:00.896Z,0.06
2022-12-29T03:00:13.715Z,0.12
2022-12-29T03:06:04.047Z,0.19
2022-12-29T03:11:33.768Z,0.26
2022-12-29T03:16:47.029Z,0.27
2022-12-29T03:22:19.120Z,0.30
2022-12-29T03:27:35.257Z,0.34
2022-12-29T03:32:48.406Z,0.36
2022-12-29T03:38:01.195Z,0.34
2022-12-29T03:43:09.449Z,0.36
2022-12-29T03:48:17.231Z,0.48
2022-12-29T03:53:24.440Z,0.63
2022-12-29T03:58:30.215Z,0.74
2022-12-29T04:03:37.595Z,0.71
2022-12-29T04:08:45.517Z,0.59
2022-12-29T04:13:52.926Z,0.58
2022-12-29T04:18:58.868Z,0.59
2022-12-29T04:24:08.394Z,0.49
2022-12-29T04:29:16.240Z,0.36
2022-12-29T04:34:23.592Z,0.35
2022-12-29T04:39:30.942Z,0.36
2022-12-29T04:44:43.030Z,0.37
2022-12-29T04:49:52.406Z,0.35
2022-12-29T04:55:01.055Z,0.35
2022-12-29T05:00:11.290Z,0.28
2022-12-29T05:05:19.159Z,0.25
2022-12-29T05:10:26.798Z,0.23
2022-12-29T05:15:33.970Z,0.19
2022-12-29T05:20:41.249Z,0.17
2022-12-29T05:25:47.801Z,0.15
2022-12-29T05:30:56.032Z,0.15
2022-12-29T05:36:08.426Z,0.16
2022-12-29T05:41:16.193Z,0.17
2022-12-29T05:46:23.437Z,0.11
2022-12-29T05:51:29.355Z,0.11
2022-12-29T05:56:36.784Z,0.19
2022-12-29T06:01:44.496Z,0.31
2022-12-29T06:06:51.879Z,0.39
2022-12-29T06:11:59.489Z,0.42
2022-12-29T06:17:05.259Z,0.41
2022-12-29T06:22:13.596Z,0.33
2022-12-29T06:27:20.922Z,0.24
2022-12-29T06:32:26.625Z,0.15
2022-12-29T06:37:34.064Z,0.12
2022-12-29T06:42:41.179Z,0.02
2022-12-29T06:47:48.681Z,-0.03
2022-12-29T06:52:55.966Z,0.02
2022-12-29T06:58:02.336Z,0.01
2022-12-29T07:03:09.786Z,0.02
2022-12-29T07:08:17.250Z,0.04
2022-12-29T07:13:24.762Z,0.02
2022-12-29T07:18:32.158Z,0.02
2022-12-29T07:23:37.862Z,-0.03
2022-12-29T07:28:46.682Z,-0.10
2022-12-29T07:33:54.485Z,-0.03
2022-12-29T07:39:01.870Z,0.14
2022-12-29T07:44:10.927Z,0.32
2022-12-29T07:49:18.315Z,0.47
2022-12-29T07:54:25.933Z,0.43
2022-12-29T07:59:33.666Z,0.46
2022-12-29T08:04:41.310Z,0.43
2022-12-29T08:09:49.792Z,0.42
2022-12-29T08:14:57.096Z,0.48
2022-12-29T08:20:03.046Z,0.54
2022-12-29T08:25:11.665Z,0.52
2022-12-29T08:30:19.741Z,0.49
2022-12-29T08:35:26.921Z,0.54
2022-12-29T08:40:32.888Z,0.64
2022-12-29T08:45:40.799Z,0.80
2022-12-29T08:50:48.749Z,0.98
2022-12-29T08:56:05.203Z,1.21
2022-12-29T09:01:13.492Z,1.53
2022-12-29T09:06:21.700Z,1.76
2022-12-29T09:11:29.422Z,2.01
2022-12-29T09:16:37.489Z,2.20
2022-12-29T09:21:45.343Z,2.45
2022-12-29T09:26:51.072Z,2.71
2022-12-29T09:31:58.265Z,2.94
2022-12-29T09:37:03.899Z,3.12
2022-12-29T09:42:19.155Z,3.25
2022-12-29T09:47:27.577Z,3.38
2022-12-29T09:52:38.922Z,3.55
2022-12-29T09:57:51.082Z,3.77
2022-12-29T10:03:01.958Z,4.02
2022-12-29T10:08:26.727Z,4.21
2022-12-29T10:13:45.433Z,4.42
2022-12-29T10:19:05.163Z,4.74
2022-12-29T10:24:15.318Z,5.03
2022-12-29T10:29:26.822Z,5.27
2022-12-29T10:34:39.347Z,5.45
2022-12-29T10:39:50.360Z,5.70
2022-12-29T10:44:58.808Z,5.93
2022-12-29T10:50:08.671Z,6.15
2022-12-29T10:55:20.024Z,6.38
2022-12-29T11:00:29.307Z,6.65
2022-12-29T11:05:42.814Z,6.96
2022-12-29T11:10:59.501Z,7.27
2022-12-29T11:16:08.482Z,7.49
2022-12-29T11:21:42.233Z,7.68
2022-12-29T11:26:51.351Z,7.89
2022-12-29T11:32:01.396Z,8.06
2022-12-29T11:37:13.752Z,8.19
2022-12-29T11:42:25.252Z,8.32
2022-12-29T11:47:34.041Z,8.42
2022-12-29T11:52:42.079Z,8.56
2022-12-29T11:57:51.412Z,8.71
2022-12-29T12:03:02.792Z,8.87
2022-12-29T12:08:21.213Z,9.03
2022-12-29T12:13:37.245Z,9.15
2022-12-29T12:18:50.984Z,9.26
2022-12-29T12:24:23.082Z,9.31
2022-12-29T12:29:40.875Z,9.35
2022-12-29T12:34:48.109Z,9.38
2022-12-29T12:40:23.678Z,9.41
2022-12-29T12:46:03.612Z,9.40
2022-12-29T12:51:22.496Z,9.41
2022-12-29T12:57:02.140Z,9.43
2022-12-29T13:02:21.957Z,9.43
2022-12-29T13:07:46.671Z,9.42
2022-12-29T13:13:03.081Z,9.39
2022-12-29T13:18:22.428Z,9.39
2022-12-29T13:23:35.456Z,9.38
2022-12-29T13:28:54.349Z,9.37
2022-12-29T13:34:08.250Z,9.34
2022-12-29T13:39:21.315Z,9.35
2022-12-29T13:44:39.881Z,9.33
2022-12-29T13:49:48.321Z,9.29
2022-12-29T13:55:04.514Z,9.23
2022-12-29T14:00:18.313Z,9.16
2022-12-29T14:05:35.438Z,9.08
2022-12-29T14:10:49.546Z,8.99
2022-12-29T14:16:00.288Z,8.88
2022-12-29T14:21:20.937Z,8.80
2022-12-29T14:26:39.744Z,8.76
2022-12-29T14:31:47.033Z,8.73
2022-12-29T14:36:59.865Z,8.69
2022-12-29T14:42:13.692Z,8.63
2022-12-29T14:47:26.157Z,8.55
2022-12-29T14:52:34.243Z,8.45
2022-12-29T14:57:44.146Z,8.35
2022-12-29T15:02:57.330Z,8.31
2022-12-29T15:08:06.186Z,8.27
2022-12-29T15:13:23.929Z,8.22
2022-12-29T15:18:33.927Z,8.12
2022-12-29T15:23:41.220Z,8.04
2022-12-29T15:28:49.927Z,7.96
2022-12-29T15:34:12.300Z,7.86
2022-12-29T15:41:59.671Z,7.71
2022-12-29T15:47:14.835Z,7.58
2022-12-29T15:52:25.352Z,7.47
2022-12-29T15:57:38.666Z,7.34
2022-12-29T16:02:48.535Z,7.19
2022-12-29T16:08:01.005Z,7.04
2022-12-29T16:13:34.201Z,6.84
2022-12-29T16:18:50.492Z,6.58
2022-12-29T16:24:08.103Z,6.35
2022-12-29T16:29:18.520Z,6.14
2022-12-29T16:34:30.628Z,5.92
2022-12-29T16:39:41.675Z,5.76
2022-12-29T16:44:49.457Z,5.69
2022-12-29T16:50:13.077Z,5.63
2022-12-29T16:55:24.458Z,5.56
2022-12-29T17:00:36.623Z,5.48
2022-12-29T17:05:43.959Z,5.40
2022-12-29T17:11:08.659Z,5.34
2022-12-29T17:16:16.376Z,5.24
2022-12-29T17:21:23.622Z,5.13
2022-12-29T17:26:31.136Z,4.98
2022-12-29T17:31:39.303Z,4.83
2022-12-29T17:41:50.381Z,4.66
2022-12-29T17:46:57.877Z,4.54
2022-12-29T17:52:06.139Z,4.46
2022-12-29T17:57:17.592Z,4.41
2022-12-29T18:02:32.046Z,4.23
2022-12-29T18:07:39.997Z,4.04
2022-12-29T18:12:50.033Z,3.80
2022-12-29T18:18:01.771Z,3.57
2022-12-29T18:23:16.780Z,3.40
2022-12-29T18:28:25.395Z,3.28
2022-12-29T18:33:33.210Z,3.21
2022-12-29T18:38:41.235Z,3.12
2022-12-29T18:43:49.650Z,3.03
2022-12-29T18:48:57.166Z,2.91
2022-12-29T18:54:05.417Z,2.76
2022-12-29T18:59:13.869Z,2.66
2022-12-29T19:04:22.788Z,2.59
2022-12-29T19:09:30.233Z,2.46
2022-12-29T19:14:35.863Z,2.36
2022-12-29T19:19:43.857Z,2.29
2022-12-29T19:24:56.308Z,2.32
2022-12-29T19:30:08.921Z,2.37
2022-12-29T19:35:17.756Z,2.29
2022-12-29T19:40:27.003Z,2.24
2022-12-29T19:45:34.256Z,2.33
2022-12-29T19:50:39.716Z,2.41
2022-12-29T19:55:48.132Z,2.39
2022-12-29T20:00:55.505Z,2.48
2022-12-29T20:06:02.872Z,2.58
2022-12-29T20:11:13.489Z,2.65
2022-12-29T20:16:22.539Z,2.61
2022-12-29T20:21:29.784Z,2.49
2022-12-29T20:26:36.968Z,2.43
2022-12-29T20:31:42.525Z,2.39
2022-12-29T20:36:51.513Z,2.32
2022-12-29T20:41:59.137Z,2.35
2022-12-29T20:47:08.443Z,2.37
2022-12-29T20:52:16.052Z,2.50
2022-12-29T20:57:23.360Z,2.73
2022-12-29T21:02:30.863Z,2.86
2022-12-29T21:07:38.454Z,2.98
2022-12-29T21:12:45.845Z,3.02
2022-12-29T21:17:53.359Z,2.99
2022-12-29T21:23:01.329Z,3.06
2022-12-29T21:28:12.544Z,3.26
2022-12-29T21:33:20.843Z,3.36
2022-12-29T21:38:32.111Z,3.41
2022-12-29T21:43:40.188Z,3.50
2022-12-29T21:48:50.427Z,3.61
2022-12-29T21:54:20.846Z,3.70
2022-12-29T21:59:45.784Z,3.66
2022-12-29T22:05:10.990Z,3.61
2022-12-29T22:10:36.175Z,3.46
2022-12-29T22:15:43.792Z,3.28
2022-12-29T22:20:51.143Z,3.14
2022-12-29T22:25:56.867Z,3.24
2022-12-29T22:31:04.763Z,3.38
2022-12-29T22:36:12.900Z,3.45
2022-12-29T22:41:20.799Z,3.34
2022-12-29T22:46:28.182Z,3.12
2022-12-29T22:51:35.751Z,2.97
2022-12-29T22:56:43.418Z,2.83
2022-12-29T23:01:51.371Z,2.88
2022-12-29T23:06:59.024Z,2.97
2022-12-29T23:12:07.111Z,3.00
2022-12-29T23:17:14.623Z,2.89
2022-12-29T23:22:23.483Z,2.77
2022-12-29T23:27:31.205Z,2.79
2022-12-29T23:32:38.465Z,2.85
2022-12-29T23:37:44.125Z,2.85
2022-12-29T23:42:51.534Z,2.83
2022-12-29T23:47:58.961Z,2.86
2022-12-29T23:53:06.561Z,2.87
2022-12-29T23:58:14.798Z,2.85
